sensor_id;sensor_type;location;lat;lon;timestamp;noise_LAeq;noise_LA_min;noise_LA_max;noise_LA01;noise_LA95
72736;Laerm;60856;53.238;10.448;2023-08-08T00:00:06;54.40;53.42;55.59;;
72736;Laerm;60856;53.238;10.448;2023-08-08T00:02:31;54.39;53.47;55.49;;
72736;Laerm;60856;53.238;10.448;2023-08-08T00:04:56;54.38;53.24;55.53;;
72736;Laerm;60856;53.238;10.448;2023-08-08T00:07:22;54.40;53.25;55.46;;
72736;Laerm;60856;53.238;10.448;2023-08-08T00:12:50;54.41;53.29;55.73;;
72736;Laerm;60856;53.238;10.448;2023-08-08T00:15:15;54.40;53.25;55.45;;
72736;Laerm;60856;53.238;10.448;2023-08-08T00:17:40;54.42;53.43;55.67;;
72736;Laerm;60856;53.238;10.448;2023-08-08T00:20:06;54.41;53.18;55.63;;
72736;Laerm;60856;53.238;10.448;2023-08-08T00:22:32;54.41;53.33;55.77;;
72736;Laerm;60856;53.238;10.448;2023-08-08T00:24:57;54.39;53.27;55.92;;
72736;Laerm;60856;53.238;10.448;2023-08-08T00:27:23;54.40;53.30;55.66;;
72736;Laerm;60856;53.238;10.448;2023-08-08T00:29:48;54.40;53.44;55.68;;
72736;Laerm;60856;53.238;10.448;2023-08-08T00:32:13;54.39;53.40;55.67;;
72736;Laerm;60856;53.238;10.448;2023-08-08T00:34:38;54.38;53.35;55.57;;
72736;Laerm;60856;53.238;10.448;2023-08-08T00:37:04;54.39;53.39;55.70;;
72736;Laerm;60856;53.238;10.448;2023-08-08T00:39:29;54.38;53.27;55.45;;
72736;Laerm;60856;53.238;10.448;2023-08-08T00:41:54;54.35;53.33;55.89;;
72736;Laerm;60856;53.238;10.448;2023-08-08T00:44:19;54.35;53.23;55.57;;
72736;Laerm;60856;53.238;10.448;2023-08-08T00:46:45;54.36;53.27;55.47;;
72736;Laerm;60856;53.238;10.448;2023-08-08T00:49:10;54.35;53.37;55.44;;
72736;Laerm;60856;53.238;10.448;2023-08-08T00:51:35;54.35;53.23;55.39;;
72736;Laerm;60856;53.238;10.448;2023-08-08T00:54:01;54.38;53.34;55.54;;
72736;Laerm;60856;53.238;10.448;2023-08-08T00:56:26;54.37;53.28;55.40;;
72736;Laerm;60856;53.238;10.448;2023-08-08T00:58:51;54.38;53.26;55.45;;
72736;Laerm;60856;53.238;10.448;2023-08-08T01:01:17;54.38;53.32;55.63;;
72736;Laerm;60856;53.238;10.448;2023-08-08T01:03:42;54.37;53.05;55.54;;
72736;Laerm;60856;53.238;10.448;2023-08-08T01:06:10;54.38;53.28;55.54;;
72736;Laerm;60856;53.238;10.448;2023-08-08T01:09:21;54.38;53.24;55.60;;
72736;Laerm;60856;53.238;10.448;2023-08-08T01:11:27;54.37;53.26;55.45;;
72736;Laerm;60856;53.238;10.448;2023-08-08T01:13:54;54.38;53.28;55.79;;
72736;Laerm;60856;53.238;10.448;2023-08-08T01:16:20;54.39;53.25;55.54;;
72736;Laerm;60856;53.238;10.448;2023-08-08T01:18:46;54.40;53.40;55.73;;
72736;Laerm;60856;53.238;10.448;2023-08-08T01:21:12;54.40;53.40;55.51;;
72736;Laerm;60856;53.238;10.448;2023-08-08T01:23:46;54.40;53.32;55.62;;
72736;Laerm;60856;53.238;10.448;2023-08-08T01:26:17;54.40;53.18;55.63;;
72736;Laerm;60856;53.238;10.448;2023-08-08T01:28:42;54.39;53.20;55.49;;
72736;Laerm;60856;53.238;10.448;2023-08-08T01:31:09;54.39;53.16;55.56;;
72736;Laerm;60856;53.238;10.448;2023-08-08T01:33:34;54.40;53.36;55.58;;
72736;Laerm;60856;53.238;10.448;2023-08-08T01:36:00;54.40;53.25;55.58;;
72736;Laerm;60856;53.238;10.448;2023-08-08T01:38:36;54.41;53.39;55.65;;
72736;Laerm;60856;53.238;10.448;2023-08-08T01:41:02;54.41;53.25;55.51;;
72736;Laerm;60856;53.238;10.448;2023-08-08T01:43:29;54.41;53.39;55.55;;
72736;Laerm;60856;53.238;10.448;2023-08-08T01:45:56;54.41;53.30;55.72;;
72736;Laerm;60856;53.238;10.448;2023-08-08T01:48:21;54.42;53.41;55.70;;
72736;Laerm;60856;53.238;10.448;2023-08-08T01:50:46;54.40;53.43;55.81;;
72736;Laerm;60856;53.238;10.448;2023-08-08T01:53:12;54.39;53.33;55.49;;
72736;Laerm;60856;53.238;10.448;2023-08-08T01:55:37;54.40;53.37;55.73;;
72736;Laerm;60856;53.238;10.448;2023-08-08T01:58:02;54.40;53.36;55.94;;
72736;Laerm;60856;53.238;10.448;2023-08-08T02:00:28;54.40;53.40;55.48;;
72736;Laerm;60856;53.238;10.448;2023-08-08T02:02:53;54.40;53.45;55.74;;
72736;Laerm;60856;53.238;10.448;2023-08-08T02:05:18;54.40;53.29;55.40;;
72736;Laerm;60856;53.238;10.448;2023-08-08T02:07:43;54.40;53.28;55.55;;
72736;Laerm;60856;53.238;10.448;2023-08-08T02:10:09;54.41;53.44;55.68;;
72736;Laerm;60856;53.238;10.448;2023-08-08T02:12:34;54.41;53.24;55.61;;
72736;Laerm;60856;53.238;10.448;2023-08-08T02:14:59;54.41;53.16;55.50;;
72736;Laerm;60856;53.238;10.448;2023-08-08T02:17:25;54.42;53.33;55.60;;
72736;Laerm;60856;53.238;10.448;2023-08-08T02:19:51;54.41;53.19;55.83;;
72736;Laerm;60856;53.238;10.448;2023-08-08T02:22:16;54.41;53.15;55.53;;
72736;Laerm;60856;53.238;10.448;2023-08-08T02:24:41;54.39;53.25;55.38;;
72736;Laerm;60856;53.238;10.448;2023-08-08T02:27:07;54.38;53.33;55.65;;
72736;Laerm;60856;53.238;10.448;2023-08-08T02:29:32;54.36;53.24;55.52;;
72736;Laerm;60856;53.238;10.448;2023-08-08T02:31:57;54.35;53.18;55.73;;
72736;Laerm;60856;53.238;10.448;2023-08-08T02:34:23;54.36;53.33;55.55;;
72736;Laerm;60856;53.238;10.448;2023-08-08T02:36:48;54.35;53.31;55.51;;
72736;Laerm;60856;53.238;10.448;2023-08-08T02:39:14;54.37;53.29;55.55;;
72736;Laerm;60856;53.238;10.448;2023-08-08T02:41:39;54.38;53.35;55.66;;
72736;Laerm;60856;53.238;10.448;2023-08-08T02:44:04;54.37;53.23;55.60;;
72736;Laerm;60856;53.238;10.448;2023-08-08T02:46:29;54.37;53.19;55.56;;
72736;Laerm;60856;53.238;10.448;2023-08-08T02:48:55;54.38;53.35;55.43;;
72736;Laerm;60856;53.238;10.448;2023-08-08T02:51:20;54.36;53.39;55.83;;
72736;Laerm;60856;53.238;10.448;2023-08-08T02:53:45;54.37;53.24;55.40;;
72736;Laerm;60856;53.238;10.448;2023-08-08T02:56:10;54.37;53.26;55.50;;
72736;Laerm;60856;53.238;10.448;2023-08-08T02:58:35;54.36;53.27;55.76;;
72736;Laerm;60856;53.238;10.448;2023-08-08T03:01:01;54.35;53.23;55.48;;
72736;Laerm;60856;53.238;10.448;2023-08-08T03:03:26;54.34;53.33;55.61;;
72736;Laerm;60856;53.238;10.448;2023-08-08T03:05:52;54.34;53.22;55.37;;
72736;Laerm;60856;53.238;10.448;2023-08-08T03:08:17;54.34;53.26;55.54;;
72736;Laerm;60856;53.238;10.448;2023-08-08T03:10:42;54.34;53.20;55.40;;
72736;Laerm;60856;53.238;10.448;2023-08-08T03:13:07;54.34;53.22;55.48;;
72736;Laerm;60856;53.238;10.448;2023-08-08T03:15:33;54.35;53.33;55.39;;
72736;Laerm;60856;53.238;10.448;2023-08-08T03:17:58;54.34;53.19;56.09;;
72736;Laerm;60856;53.238;10.448;2023-08-08T03:20:23;54.35;53.03;55.44;;
72736;Laerm;60856;53.238;10.448;2023-08-08T03:22:48;54.35;53.12;55.73;;
72736;Laerm;60856;53.238;10.448;2023-08-08T03:25:14;54.35;53.23;55.47;;
72736;Laerm;60856;53.238;10.448;2023-08-08T03:27:39;54.33;53.31;55.45;;
72736;Laerm;60856;53.238;10.448;2023-08-08T03:30:05;54.33;53.24;55.61;;
72736;Laerm;60856;53.238;10.448;2023-08-08T03:35:33;54.34;53.14;55.37;;
72736;Laerm;60856;53.238;10.448;2023-08-08T03:37:58;54.34;53.34;55.38;;
72736;Laerm;60856;53.238;10.448;2023-08-08T03:40:23;54.35;53.24;55.48;;
72736;Laerm;60856;53.238;10.448;2023-08-08T03:42:48;54.40;53.17;55.50;;
72736;Laerm;60856;53.238;10.448;2023-08-08T03:45:14;54.44;53.18;55.78;;
72736;Laerm;60856;53.238;10.448;2023-08-08T03:47:39;54.51;53.17;55.65;;
72736;Laerm;60856;53.238;10.448;2023-08-08T03:53:07;54.52;53.51;55.81;;
72736;Laerm;60856;53.238;10.448;2023-08-08T03:55:32;54.46;53.40;55.53;;
72736;Laerm;60856;53.238;10.448;2023-08-08T03:57:58;54.46;53.53;55.48;;
72736;Laerm;60856;53.238;10.448;2023-08-08T04:00:24;54.48;53.38;55.69;;
72736;Laerm;60856;53.238;10.448;2023-08-08T04:02:49;54.48;53.51;55.65;;
72736;Laerm;60856;53.238;10.448;2023-08-08T04:05:14;54.49;53.33;55.74;;
72736;Laerm;60856;53.238;10.448;2023-08-08T04:07:39;54.57;53.54;55.74;;
72736;Laerm;60856;53.238;10.448;2023-08-08T04:10:05;54.59;53.65;55.71;;
72736;Laerm;60856;53.238;10.448;2023-08-08T04:12:31;54.55;53.48;55.89;;
72736;Laerm;60856;53.238;10.448;2023-08-08T04:14:57;54.52;53.45;55.77;;
72736;Laerm;60856;53.238;10.448;2023-08-08T04:17:23;54.45;53.31;55.54;;
72736;Laerm;60856;53.238;10.448;2023-08-08T04:19:48;54.43;53.39;55.45;;
72736;Laerm;60856;53.238;10.448;2023-08-08T04:22:13;54.41;53.42;55.43;;
72736;Laerm;60856;53.238;10.448;2023-08-08T04:24:40;54.41;53.24;55.59;;
72736;Laerm;60856;53.238;10.448;2023-08-08T04:27:05;54.40;53.33;55.59;;
72736;Laerm;60856;53.238;10.448;2023-08-08T04:29:31;54.39;53.39;55.42;;
72736;Laerm;60856;53.238;10.448;2023-08-08T04:31:56;54.39;53.44;55.86;;
72736;Laerm;60856;53.238;10.448;2023-08-08T04:34:21;54.42;53.20;55.49;;
72736;Laerm;60856;53.238;10.448;2023-08-08T04:36:46;54.42;53.44;55.63;;
72736;Laerm;60856;53.238;10.448;2023-08-08T04:39:12;54.44;53.40;55.72;;
72736;Laerm;60856;53.238;10.448;2023-08-08T04:41:37;54.46;53.50;55.75;;
72736;Laerm;60856;53.238;10.448;2023-08-08T04:44:02;54.51;53.31;55.71;;
72736;Laerm;60856;53.238;10.448;2023-08-08T04:46:27;54.55;53.44;55.78;;
72736;Laerm;60856;53.238;10.448;2023-08-08T04:48:53;54.57;53.55;55.75;;
72736;Laerm;60856;53.238;10.448;2023-08-08T04:51:18;54.59;53.49;55.73;;
72736;Laerm;60856;53.238;10.448;2023-08-08T04:53:43;54.61;53.65;55.68;;
72736;Laerm;60856;53.238;10.448;2023-08-08T04:56:08;54.59;53.44;55.71;;
72736;Laerm;60856;53.238;10.448;2023-08-08T04:58:33;54.60;53.57;55.64;;
72736;Laerm;60856;53.238;10.448;2023-08-08T05:00:59;54.61;53.48;55.71;;
72736;Laerm;60856;53.238;10.448;2023-08-08T05:03:24;54.57;53.40;55.97;;
72736;Laerm;60856;53.238;10.448;2023-08-08T05:05:49;54.59;53.54;55.64;;
72736;Laerm;60856;53.238;10.448;2023-08-08T05:08:15;54.64;53.61;55.73;;
72736;Laerm;60856;53.238;10.448;2023-08-08T05:10:40;54.74;53.63;55.82;;
72736;Laerm;60856;53.238;10.448;2023-08-08T05:13:05;54.90;53.95;56.06;;
72736;Laerm;60856;53.238;10.448;2023-08-08T05:15:31;55.18;54.20;56.20;;
72736;Laerm;60856;53.238;10.448;2023-08-08T05:17:56;55.38;54.25;56.52;;
72736;Laerm;60856;53.238;10.448;2023-08-08T05:20:22;55.26;54.11;56.36;;
72736;Laerm;60856;53.238;10.448;2023-08-08T05:22:47;54.94;53.81;56.13;;
72736;Laerm;60856;53.238;10.448;2023-08-08T05:25:13;55.46;54.04;57.94;;
72736;Laerm;60856;53.238;10.448;2023-08-08T05:27:38;56.75;54.27;58.45;;
72736;Laerm;60856;53.238;10.448;2023-08-08T05:30:03;56.79;54.95;58.45;;
72736;Laerm;60856;53.238;10.448;2023-08-08T05:32:29;56.54;52.08;58.54;;
72736;Laerm;60856;53.238;10.448;2023-08-08T05:34:54;56.31;51.90;58.59;;
72736;Laerm;60856;53.238;10.448;2023-08-08T05:37:21;56.17;55.17;57.28;;
72736;Laerm;60856;53.238;10.448;2023-08-08T05:39:47;55.91;54.94;57.04;;
72736;Laerm;60856;53.238;10.448;2023-08-08T05:42:12;55.75;54.74;56.81;;
72736;Laerm;60856;53.238;10.448;2023-08-08T05:44:37;55.57;54.62;56.75;;
72736;Laerm;60856;53.238;10.448;2023-08-08T05:47:02;55.43;54.29;56.53;;
72736;Laerm;60856;53.238;10.448;2023-08-08T05:49:28;55.63;54.63;56.78;;
72736;Laerm;60856;53.238;10.448;2023-08-08T05:51:53;55.91;54.96;56.81;;
72736;Laerm;60856;53.238;10.448;2023-08-08T05:54:18;56.36;55.22;57.84;;
72736;Laerm;60856;53.238;10.448;2023-08-08T05:59:46;61.88;52.35;66.46;;
72736;Laerm;60856;53.238;10.448;2023-08-08T06:02:12;59.24;52.35;66.90;;
72736;Laerm;60856;53.238;10.448;2023-08-08T06:04:37;57.00;55.60;58.24;;
72736;Laerm;60856;53.238;10.448;2023-08-08T06:07:02;56.48;55.49;57.60;;
72736;Laerm;60856;53.238;10.448;2023-08-08T06:09:28;56.46;55.44;57.48;;
72736;Laerm;60856;53.238;10.448;2023-08-08T06:11:53;56.23;55.11;57.24;;
72736;Laerm;60856;53.238;10.448;2023-08-08T06:14:18;56.23;55.20;57.14;;
72736;Laerm;60856;53.238;10.448;2023-08-08T06:16:43;55.75;54.44;56.85;;
72736;Laerm;60856;53.238;10.448;2023-08-08T06:19:09;55.53;54.56;56.42;;
72736;Laerm;60856;53.238;10.448;2023-08-08T06:21:35;55.88;54.70;56.87;;
72736;Laerm;60856;53.238;10.448;2023-08-08T06:24:00;55.94;54.90;56.95;;
72736;Laerm;60856;53.238;10.448;2023-08-08T06:26:25;56.42;54.39;58.21;;
72736;Laerm;60856;53.238;10.448;2023-08-08T06:28:51;56.08;54.79;57.15;;
72736;Laerm;60856;53.238;10.448;2023-08-08T06:31:19;55.77;54.75;57.03;;
72736;Laerm;60856;53.238;10.448;2023-08-08T06:33:44;55.81;54.82;56.77;;
72736;Laerm;60856;53.238;10.448;2023-08-08T06:36:09;55.80;54.62;57.09;;
72736;Laerm;60856;53.238;10.448;2023-08-08T06:38:35;56.63;55.19;58.33;;
72736;Laerm;60856;53.238;10.448;2023-08-08T06:41:00;57.23;55.60;58.61;;
72736;Laerm;60856;53.238;10.448;2023-08-08T06:43:26;57.09;55.99;58.29;;
72736;Laerm;60856;53.238;10.448;2023-08-08T06:45:51;58.88;-14.49;68.24;;
72736;Laerm;60856;53.238;10.448;2023-08-08T06:48:16;58.12;-11.70;68.65;;
72736;Laerm;60856;53.238;10.448;2023-08-08T06:50:42;56.77;55.53;57.89;;
72736;Laerm;60856;53.238;10.448;2023-08-08T06:53:07;56.59;55.54;57.62;;
72736;Laerm;60856;53.238;10.448;2023-08-08T06:55:32;58.32;52.26;67.18;;
72736;Laerm;60856;53.238;10.448;2023-08-08T06:57:58;59.44;52.08;67.73;;
72736;Laerm;60856;53.238;10.448;2023-08-08T07:00:23;59.45;52.09;67.86;;
72736;Laerm;60856;53.238;10.448;2023-08-08T07:02:49;59.77;52.45;68.04;;
72736;Laerm;60856;53.238;10.448;2023-08-08T07:05:14;56.88;55.67;58.13;;
72736;Laerm;60856;53.238;10.448;2023-08-08T07:07:39;57.18;55.87;58.52;;
72736;Laerm;60856;53.238;10.448;2023-08-08T07:10:05;57.17;51.38;58.62;;
72736;Laerm;60856;53.238;10.448;2023-08-08T07:12:31;58.06;52.48;67.57;;
72736;Laerm;60856;53.238;10.448;2023-08-08T07:14:56;58.95;52.17;67.69;;
72736;Laerm;60856;53.238;10.448;2023-08-08T07:17:22;57.43;52.47;67.67;;
72736;Laerm;60856;53.238;10.448;2023-08-08T07:19:47;56.96;53.53;58.68;;
72736;Laerm;60856;53.238;10.448;2023-08-08T07:22:12;57.46;52.80;67.73;;
72736;Laerm;60856;53.238;10.448;2023-08-08T07:24:37;63.88;52.16;67.78;;
72736;Laerm;60856;53.238;10.448;2023-08-08T07:27:04;59.85;52.39;67.57;;
72736;Laerm;60856;53.238;10.448;2023-08-08T07:29:29;58.51;52.28;67.81;;
72736;Laerm;60856;53.238;10.448;2023-08-08T07:31:54;59.66;52.27;67.89;;
72736;Laerm;60856;53.238;10.448;2023-08-08T07:34:20;59.30;52.25;67.61;;
72736;Laerm;60856;53.238;10.448;2023-08-08T07:39:50;57.27;55.89;58.34;;
72736;Laerm;60856;53.238;10.448;2023-08-08T07:42:16;57.10;55.97;58.20;;
72736;Laerm;60856;53.238;10.448;2023-08-08T07:44:41;56.98;55.70;57.90;;
72736;Laerm;60856;53.238;10.448;2023-08-08T07:47:06;57.03;55.85;58.03;;
72736;Laerm;60856;53.238;10.448;2023-08-08T07:49:32;56.73;55.77;57.66;;
72736;Laerm;60856;53.238;10.448;2023-08-08T07:51:57;56.82;55.81;57.80;;
72736;Laerm;60856;53.238;10.448;2023-08-08T07:54:22;56.91;55.61;57.91;;
72736;Laerm;60856;53.238;10.448;2023-08-08T07:56:47;56.65;55.57;57.69;;
72736;Laerm;60856;53.238;10.448;2023-08-08T07:59:13;56.45;55.19;57.48;;
72736;Laerm;60856;53.238;10.448;2023-08-08T08:01:38;56.48;55.15;57.46;;
72736;Laerm;60856;53.238;10.448;2023-08-08T08:04:03;56.12;54.85;57.25;;
72736;Laerm;60856;53.238;10.448;2023-08-08T08:06:28;56.31;55.20;57.26;;
72736;Laerm;60856;53.238;10.448;2023-08-08T08:08:54;56.59;55.07;57.61;;
72736;Laerm;60856;53.238;10.448;2023-08-08T08:11:19;56.64;55.42;57.75;;
72736;Laerm;60856;53.238;10.448;2023-08-08T08:13:44;56.35;55.25;57.58;;
72736;Laerm;60856;53.238;10.448;2023-08-08T08:16:09;56.56;55.12;57.69;;
72736;Laerm;60856;53.238;10.448;2023-08-08T08:18:35;56.70;55.12;58.00;;
72736;Laerm;60856;53.238;10.448;2023-08-08T08:21:00;56.94;55.79;58.12;;
72736;Laerm;60856;53.238;10.448;2023-08-08T08:23:29;56.76;55.74;57.89;;
72736;Laerm;60856;53.238;10.448;2023-08-08T08:25:56;56.73;55.67;57.81;;
72736;Laerm;60856;53.238;10.448;2023-08-08T08:28:25;56.71;55.68;57.70;;
72736;Laerm;60856;53.238;10.448;2023-08-08T08:30:50;56.58;55.30;57.53;;
72736;Laerm;60856;53.238;10.448;2023-08-08T08:33:16;56.10;55.17;57.03;;
72736;Laerm;60856;53.238;10.448;2023-08-08T08:35:41;56.18;55.12;57.27;;
72736;Laerm;60856;53.238;10.448;2023-08-08T08:38:06;56.54;55.38;57.67;;
72736;Laerm;60856;53.238;10.448;2023-08-08T08:40:34;56.58;55.58;57.61;;
72736;Laerm;60856;53.238;10.448;2023-08-08T08:43:00;56.43;55.36;57.43;;
72736;Laerm;60856;53.238;10.448;2023-08-08T08:45:26;56.22;55.15;57.26;;
72736;Laerm;60856;53.238;10.448;2023-08-08T08:47:54;56.06;55.09;57.06;;
72736;Laerm;60856;53.238;10.448;2023-08-08T08:50:20;55.59;54.58;56.57;;
72736;Laerm;60856;53.238;10.448;2023-08-08T08:52:46;55.39;54.34;56.70;;
72736;Laerm;60856;53.238;10.448;2023-08-08T08:55:11;55.50;54.42;56.48;;
72736;Laerm;60856;53.238;10.448;2023-08-08T08:57:37;55.78;54.60;56.85;;
72736;Laerm;60856;53.238;10.448;2023-08-08T09:00:03;55.93;55.01;56.79;;
72736;Laerm;60856;53.238;10.448;2023-08-08T09:02:28;55.77;54.80;56.92;;
72736;Laerm;60856;53.238;10.448;2023-08-08T09:04:53;55.58;54.67;56.63;;
72736;Laerm;60856;53.238;10.448;2023-08-08T09:07:19;55.41;54.30;56.41;;
72736;Laerm;60856;53.238;10.448;2023-08-08T09:09:45;55.42;54.22;56.50;;
72736;Laerm;60856;53.238;10.448;2023-08-08T09:12:11;55.60;54.31;56.66;;
72736;Laerm;60856;53.238;10.448;2023-08-08T09:14:39;55.74;54.87;56.83;;
72736;Laerm;60856;53.238;10.448;2023-08-08T09:17:09;55.90;54.94;57.02;;
72736;Laerm;60856;53.238;10.448;2023-08-08T09:19:35;55.95;54.87;57.09;;
72736;Laerm;60856;53.238;10.448;2023-08-08T09:22:00;55.99;55.02;57.16;;
72736;Laerm;60856;53.238;10.448;2023-08-08T09:24:26;55.97;54.84;56.98;;
72736;Laerm;60856;53.238;10.448;2023-08-08T09:26:51;55.95;54.88;56.93;;
72736;Laerm;60856;53.238;10.448;2023-08-08T09:29:16;56.00;55.00;57.14;;
72736;Laerm;60856;53.238;10.448;2023-08-08T09:31:41;56.09;54.94;57.07;;
72736;Laerm;60856;53.238;10.448;2023-08-08T09:34:07;56.19;55.01;57.16;;
72736;Laerm;60856;53.238;10.448;2023-08-08T09:36:32;56.35;55.32;57.29;;
72736;Laerm;60856;53.238;10.448;2023-08-08T09:38:58;56.48;55.40;57.52;;
72736;Laerm;60856;53.238;10.448;2023-08-08T09:41:24;56.65;55.48;57.64;;
72736;Laerm;60856;53.238;10.448;2023-08-08T09:43:50;56.64;55.60;57.76;;
72736;Laerm;60856;53.238;10.448;2023-08-08T09:46:15;56.58;55.44;57.68;;
72736;Laerm;60856;53.238;10.448;2023-08-08T09:48:41;56.52;55.46;57.48;;
72736;Laerm;60856;53.238;10.448;2023-08-08T09:51:07;56.69;55.55;57.69;;
72736;Laerm;60856;53.238;10.448;2023-08-08T09:53:32;56.80;55.73;57.87;;
72736;Laerm;60856;53.238;10.448;2023-08-08T09:55:58;56.84;55.60;57.75;;
72736;Laerm;60856;53.238;10.448;2023-08-08T09:58:25;56.80;55.64;57.83;;
72736;Laerm;60856;53.238;10.448;2023-08-08T10:00:50;56.77;55.86;57.72;;
72736;Laerm;60856;53.238;10.448;2023-08-08T10:03:16;56.79;55.81;57.98;;
72736;Laerm;60856;53.238;10.448;2023-08-08T10:05:42;56.84;55.75;57.92;;
72736;Laerm;60856;53.238;10.448;2023-08-08T10:08:07;56.56;55.48;57.61;;
72736;Laerm;60856;53.238;10.448;2023-08-08T10:10:32;56.16;55.21;57.34;;
72736;Laerm;60856;53.238;10.448;2023-08-08T10:12:57;55.91;54.86;56.94;;
72736;Laerm;60856;53.238;10.448;2023-08-08T10:15:26;55.69;54.51;56.61;;
72736;Laerm;60856;53.238;10.448;2023-08-08T10:17:55;55.51;54.42;56.48;;
72736;Laerm;60856;53.238;10.448;2023-08-08T10:20:21;55.41;54.37;56.78;;
72736;Laerm;60856;53.238;10.448;2023-08-08T10:22:46;55.42;54.14;56.46;;
72736;Laerm;60856;53.238;10.448;2023-08-08T10:25:33;55.61;54.50;56.53;;
72736;Laerm;60856;53.238;10.448;2023-08-08T10:28:10;55.73;54.82;56.80;;
72736;Laerm;60856;53.238;10.448;2023-08-08T10:30:44;55.60;54.03;56.68;;
72736;Laerm;60856;53.238;10.448;2023-08-08T10:33:23;55.80;54.56;56.74;;
72736;Laerm;60856;53.238;10.448;2023-08-08T10:36:02;55.94;54.98;56.91;;
72736;Laerm;60856;53.238;10.448;2023-08-08T10:38:47;55.80;54.72;56.82;;
72736;Laerm;60856;53.238;10.448;2023-08-08T10:41:15;55.50;54.48;56.63;;
72736;Laerm;60856;53.238;10.448;2023-08-08T10:43:53;55.34;54.27;56.36;;
72736;Laerm;60856;53.238;10.448;2023-08-08T10:46:39;55.32;54.29;56.70;;
72736;Laerm;60856;53.238;10.448;2023-08-08T10:49:05;55.32;54.24;56.33;;
72736;Laerm;60856;53.238;10.448;2023-08-08T10:51:35;55.32;54.17;56.42;;
72736;Laerm;60856;53.238;10.448;2023-08-08T10:54:23;55.37;54.36;56.46;;
72736;Laerm;60856;53.238;10.448;2023-08-08T10:56:54;55.46;54.39;56.55;;
72736;Laerm;60856;53.238;10.448;2023-08-08T10:59:20;55.59;54.60;56.50;;
72736;Laerm;60856;53.238;10.448;2023-08-08T11:01:46;55.70;54.70;56.80;;
72736;Laerm;60856;53.238;10.448;2023-08-08T11:04:12;55.79;54.90;56.87;;
72736;Laerm;60856;53.238;10.448;2023-08-08T11:06:38;55.85;54.87;57.00;;
72736;Laerm;60856;53.238;10.448;2023-08-08T11:09:07;55.85;54.70;56.79;;
72736;Laerm;60856;53.238;10.448;2023-08-08T11:11:36;55.95;54.83;56.98;;
72736;Laerm;60856;53.238;10.448;2023-08-08T11:14:08;56.06;55.11;57.10;;
72736;Laerm;60856;53.238;10.448;2023-08-08T11:16:33;56.18;55.19;57.13;;
72736;Laerm;60856;53.238;10.448;2023-08-08T11:18:59;56.52;55.40;57.54;;
72736;Laerm;60856;53.238;10.448;2023-08-08T11:21:25;56.58;55.57;57.58;;
72736;Laerm;60856;53.238;10.448;2023-08-08T11:23:50;56.56;55.47;57.44;;
72736;Laerm;60856;53.238;10.448;2023-08-08T11:26:17;56.50;55.47;57.57;;
72736;Laerm;60856;53.238;10.448;2023-08-08T11:28:48;56.42;55.27;57.37;;
72736;Laerm;60856;53.238;10.448;2023-08-08T11:31:13;56.05;54.93;57.17;;
72736;Laerm;60856;53.238;10.448;2023-08-08T11:33:39;55.98;54.99;57.06;;
72736;Laerm;60856;53.238;10.448;2023-08-08T11:36:04;56.03;54.94;57.11;;
72736;Laerm;60856;53.238;10.448;2023-08-08T11:38:29;56.13;54.93;57.07;;
72736;Laerm;60856;53.238;10.448;2023-08-08T11:40:55;56.24;55.23;57.38;;
72736;Laerm;60856;53.238;10.448;2023-08-08T11:43:20;56.40;55.42;57.54;;
72736;Laerm;60856;53.238;10.448;2023-08-08T11:45:48;56.52;55.26;57.48;;
72736;Laerm;60856;53.238;10.448;2023-08-08T11:48:14;56.43;55.28;57.55;;
72736;Laerm;60856;53.238;10.448;2023-08-08T11:50:40;56.39;55.31;57.40;;
72736;Laerm;60856;53.238;10.448;2023-08-08T11:53:07;56.30;55.23;57.35;;
72736;Laerm;60856;53.238;10.448;2023-08-08T11:55:32;56.09;54.85;57.09;;
72736;Laerm;60856;53.238;10.448;2023-08-08T11:57:58;56.15;55.10;57.17;;
72736;Laerm;60856;53.238;10.448;2023-08-08T12:00:28;56.30;55.16;57.45;;
72736;Laerm;60856;53.238;10.448;2023-08-08T12:02:56;56.48;55.60;57.39;;
72736;Laerm;60856;53.238;10.448;2023-08-08T12:05:22;56.53;55.39;57.67;;
72736;Laerm;60856;53.238;10.448;2023-08-08T12:07:48;56.61;55.47;57.82;;
72736;Laerm;60856;53.238;10.448;2023-08-08T12:10:15;56.55;55.65;57.55;;
72736;Laerm;60856;53.238;10.448;2023-08-08T12:12:42;56.55;55.33;57.63;;
72736;Laerm;60856;53.238;10.448;2023-08-08T12:15:08;56.52;55.59;57.59;;
72736;Laerm;60856;53.238;10.448;2023-08-08T12:17:34;56.51;55.43;57.57;;
72736;Laerm;60856;53.238;10.448;2023-08-08T12:19:59;56.59;55.38;57.63;;
72736;Laerm;60856;53.238;10.448;2023-08-08T12:22:25;56.49;55.51;57.51;;
72736;Laerm;60856;53.238;10.448;2023-08-08T12:24:51;56.46;55.53;57.72;;
72736;Laerm;60856;53.238;10.448;2023-08-08T12:27:16;56.47;55.32;57.52;;
72736;Laerm;60856;53.238;10.448;2023-08-08T12:29:41;56.32;55.13;57.34;;
72736;Laerm;60856;53.238;10.448;2023-08-08T12:32:06;56.12;54.98;57.31;;
72736;Laerm;60856;53.238;10.448;2023-08-08T12:34:33;55.83;54.74;56.82;;
72736;Laerm;60856;53.238;10.448;2023-08-08T12:36:58;55.85;54.86;56.88;;
72736;Laerm;60856;53.238;10.448;2023-08-08T12:39:23;55.89;54.84;56.91;;
72736;Laerm;60856;53.238;10.448;2023-08-08T12:41:49;56.09;55.08;57.03;;
72736;Laerm;60856;53.238;10.448;2023-08-08T12:44:14;56.09;55.13;57.04;;
72736;Laerm;60856;53.238;10.448;2023-08-08T12:46:39;56.17;54.88;57.28;;
72736;Laerm;60856;53.238;10.448;2023-08-08T12:49:05;56.34;55.37;57.48;;
72736;Laerm;60856;53.238;10.448;2023-08-08T12:51:30;56.42;55.50;57.51;;
72736;Laerm;60856;53.238;10.448;2023-08-08T12:53:55;56.44;55.39;57.59;;
72736;Laerm;60856;53.238;10.448;2023-08-08T12:56:20;56.48;55.49;57.50;;
72736;Laerm;60856;53.238;10.448;2023-08-08T12:58:45;56.44;55.33;57.31;;
72736;Laerm;60856;53.238;10.448;2023-08-08T13:01:11;56.60;55.63;57.59;;
72736;Laerm;60856;53.238;10.448;2023-08-08T13:03:36;56.67;55.78;57.83;;
72736;Laerm;60856;53.238;10.448;2023-08-08T13:06:01;56.44;55.37;57.55;;
72736;Laerm;60856;53.238;10.448;2023-08-08T13:08:27;56.59;55.60;57.80;;
72736;Laerm;60856;53.238;10.448;2023-08-08T13:10:52;56.62;55.50;57.57;;
72736;Laerm;60856;53.238;10.448;2023-08-08T13:13:18;56.49;55.53;57.40;;
72736;Laerm;60856;53.238;10.448;2023-08-08T13:15:43;56.45;55.44;57.48;;
72736;Laerm;60856;53.238;10.448;2023-08-08T13:21:13;56.61;55.61;57.56;;
72736;Laerm;60856;53.238;10.448;2023-08-08T13:23:38;56.51;55.39;57.57;;
72736;Laerm;60856;53.238;10.448;2023-08-08T13:26:03;56.53;55.42;57.74;;
72736;Laerm;60856;53.238;10.448;2023-08-08T13:28:29;56.49;55.47;57.51;;
72736;Laerm;60856;53.238;10.448;2023-08-08T13:30:54;56.43;55.41;57.40;;
72736;Laerm;60856;53.238;10.448;2023-08-08T13:33:20;56.46;55.47;57.44;;
72736;Laerm;60856;53.238;10.448;2023-08-08T13:35:46;56.41;55.47;57.47;;
72736;Laerm;60856;53.238;10.448;2023-08-08T13:38:11;56.39;55.55;57.40;;
72736;Laerm;60856;53.238;10.448;2023-08-08T13:40:39;56.49;55.24;57.46;;
72736;Laerm;60856;53.238;10.448;2023-08-08T13:43:04;56.51;55.50;57.59;;